sensor_id;sensor_type;location;lat;lon;timestamp;P1;durP1;ratioP1;P2;durP2;ratioP2
1204;SDS011;592;48.764;9.174;2022-12-28T00:02:19;9.93;;;4.70;;
1204;SDS011;592;48.764;9.174;2022-12-28T00:04:46;10.50;;;4.63;;
1204;SDS011;592;48.764;9.174;2022-12-28T00:07:13;7.10;;;4.27;;
1204;SDS011;592;48.764;9.174;2022-12-28T00:09:41;6.57;;;4.13;;
1204;SDS011;592;48.764;9.174;2022-12-28T00:12:07;9.10;;;4.63;;
1204;SDS011;592;48.764;9.174;2022-12-28T00:14:34;8.00;;;4.77;;
1204;SDS011;592;48.764;9.174;2022-12-28T00:17:01;7.80;;;4.60;;
1204;SDS011;592;48.764;9.174;2022-12-28T00:19:27;8.90;;;4.87;;
1204;SDS011;592;48.764;9.174;2022-12-28T00:21:54;6.80;;;3.60;;
1204;SDS011;592;48.764;9.174;2022-12-28T00:24:21;7.17;;;3.67;;
1204;SDS011;592;48.764;9.174;2022-12-28T00:26:51;7.20;;;4.50;;
1204;SDS011;592;48.764;9.174;2022-12-28T00:29:19;9.97;;;4.80;;
1204;SDS011;592;48.764;9.174;2022-12-28T00:31:46;6.10;;;3.70;;
1204;SDS011;592;48.764;9.174;2022-12-28T00:34:13;6.47;;;3.73;;
1204;SDS011;592;48.764;9.174;2022-12-28T00:36:40;8.67;;;4.50;;
1204;SDS011;592;48.764;9.174;2022-12-28T00:39:07;7.83;;;4.00;;
1204;SDS011;592;48.764;9.174;2022-12-28T00:41:33;7.00;;;4.10;;
1204;SDS011;592;48.764;9.174;2022-12-28T00:44:01;8.50;;;4.83;;
1204;SDS011;592;48.764;9.174;2022-12-28T00:46:28;7.27;;;4.40;;
1204;SDS011;592;48.764;9.174;2022-12-28T00:48:55;7.90;;;4.50;;
1204;SDS011;592;48.764;9.174;2022-12-28T00:51:21;6.43;;;3.60;;
1204;SDS011;592;48.764;9.174;2022-12-28T00:53:48;8.03;;;3.57;;
1204;SDS011;592;48.764;9.174;2022-12-28T00:56:16;8.53;;;4.27;;
1204;SDS011;592;48.764;9.174;2022-12-28T00:58:44;6.97;;;3.40;;
1204;SDS011;592;48.764;9.174;2022-12-28T01:01:13;8.67;;;4.27;;
1204;SDS011;592;48.764;9.174;2022-12-28T01:03:42;5.93;;;3.20;;
1204;SDS011;592;48.764;9.174;2022-12-28T01:06:10;7.30;;;4.07;;
1204;SDS011;592;48.764;9.174;2022-12-28T01:08:38;7.10;;;3.43;;
1204;SDS011;592;48.764;9.174;2022-12-28T01:11:06;7.00;;;3.30;;
1204;SDS011;592;48.764;9.174;2022-12-28T01:13:33;6.97;;;3.37;;
1204;SDS011;592;48.764;9.174;2022-12-28T01:16:00;5.23;;;3.07;;
1204;SDS011;592;48.764;9.174;2022-12-28T01:18:35;7.23;;;3.27;;
1204;SDS011;592;48.764;9.174;2022-12-28T01:21:06;9.20;;;3.67;;
1204;SDS011;592;48.764;9.174;2022-12-28T01:23:34;8.57;;;4.10;;
1204;SDS011;592;48.764;9.174;2022-12-28T01:26:01;6.13;;;3.97;;
1204;SDS011;592;48.764;9.174;2022-12-28T01:28:28;6.40;;;3.40;;
1204;SDS011;592;48.764;9.174;2022-12-28T01:30:55;8.17;;;3.93;;
1204;SDS011;592;48.764;9.174;2022-12-28T01:33:21;6.73;;;3.60;;
1204;SDS011;592;48.764;9.174;2022-12-28T01:35:49;6.33;;;3.90;;
1204;SDS011;592;48.764;9.174;2022-12-28T01:38:16;6.83;;;3.93;;
1204;SDS011;592;48.764;9.174;2022-12-28T01:40:43;6.50;;;3.40;;
1204;SDS011;592;48.764;9.174;2022-12-28T01:43:10;14.97;;;5.03;;
1204;SDS011;592;48.764;9.174;2022-12-28T01:45:38;7.30;;;3.60;;
1204;SDS011;592;48.764;9.174;2022-12-28T01:48:06;6.00;;;3.40;;
1204;SDS011;592;48.764;9.174;2022-12-28T01:50:43;6.30;;;3.33;;
1204;SDS011;592;48.764;9.174;2022-12-28T01:53:11;6.50;;;3.50;;
1204;SDS011;592;48.764;9.174;2022-12-28T01:55:38;6.10;;;3.30;;
1204;SDS011;592;48.764;9.174;2022-12-28T01:58:07;8.30;;;3.60;;
1204;SDS011;592;48.764;9.174;2022-12-28T02:00:38;7.00;;;3.83;;
1204;SDS011;592;48.764;9.174;2022-12-28T02:03:06;6.80;;;3.53;;
1204;SDS011;592;48.764;9.174;2022-12-28T02:05:36;6.93;;;3.80;;
1204;SDS011;592;48.764;9.174;2022-12-28T02:08:07;6.93;;;2.90;;
1204;SDS011;592;48.764;9.174;2022-12-28T02:10:38;8.27;;;3.67;;
1204;SDS011;592;48.764;9.174;2022-12-28T02:13:06;7.80;;;3.23;;
1204;SDS011;592;48.764;9.174;2022-12-28T02:15:34;7.40;;;3.47;;
1204;SDS011;592;48.764;9.174;2022-12-28T02:18:01;5.00;;;3.23;;
1204;SDS011;592;48.764;9.174;2022-12-28T02:20:29;6.33;;;2.70;;
1204;SDS011;592;48.764;9.174;2022-12-28T02:23:19;6.07;;;2.90;;
1204;SDS011;592;48.764;9.174;2022-12-28T02:26:06;7.37;;;3.20;;
1204;SDS011;592;48.764;9.174;2022-12-28T02:32:04;7.73;;;2.47;;
1204;SDS011;592;48.764;9.174;2022-12-28T02:34:40;4.93;;;2.70;;
1204;SDS011;592;48.764;9.174;2022-12-28T02:37:14;5.30;;;2.60;;
1204;SDS011;592;48.764;9.174;2022-12-28T02:39:44;6.23;;;2.53;;
1204;SDS011;592;48.764;9.174;2022-12-28T02:42:15;4.60;;;2.57;;
1204;SDS011;592;48.764;9.174;2022-12-28T02:44:44;6.93;;;2.70;;
1204;SDS011;592;48.764;9.174;2022-12-28T02:47:30;4.20;;;2.13;;
1204;SDS011;592;48.764;9.174;2022-12-28T02:50:14;4.17;;;2.00;;
1204;SDS011;592;48.764;9.174;2022-12-28T02:55:37;4.90;;;2.17;;
1204;SDS011;592;48.764;9.174;2022-12-28T03:01:26;6.73;;;2.10;;
1204;SDS011;592;48.764;9.174;2022-12-28T03:04:07;4.90;;;1.90;;
1204;SDS011;592;48.764;9.174;2022-12-28T03:06:43;3.77;;;1.67;;
1204;SDS011;592;48.764;9.174;2022-12-28T03:09:35;4.87;;;1.90;;
1204;SDS011;592;48.764;9.174;2022-12-28T03:12:05;5.20;;;2.20;;
1204;SDS011;592;48.764;9.174;2022-12-28T03:14:37;5.83;;;2.43;;
1204;SDS011;592;48.764;9.174;2022-12-28T03:17:08;4.30;;;1.77;;
1204;SDS011;592;48.764;9.174;2022-12-28T03:19:54;5.87;;;1.90;;
1204;SDS011;592;48.764;9.174;2022-12-28T03:22:42;4.97;;;1.70;;
1204;SDS011;592;48.764;9.174;2022-12-28T03:25:29;5.40;;;1.73;;
1204;SDS011;592;48.764;9.174;2022-12-28T03:28:18;3.50;;;1.50;;
1204;SDS011;592;48.764;9.174;2022-12-28T03:31:07;4.73;;;1.60;;
1204;SDS011;592;48.764;9.174;2022-12-28T03:33:38;4.17;;;1.50;;
1204;SDS011;592;48.764;9.174;2022-12-28T03:36:10;4.60;;;1.97;;
1204;SDS011;592;48.764;9.174;2022-12-28T03:38:46;4.53;;;1.80;;
1204;SDS011;592;48.764;9.174;2022-12-28T03:41:21;5.10;;;2.03;;
1204;SDS011;592;48.764;9.174;2022-12-28T03:43:54;4.30;;;2.00;;
1204;SDS011;592;48.764;9.174;2022-12-28T03:46:26;4.20;;;1.90;;
1204;SDS011;592;48.764;9.174;2022-12-28T03:48:56;7.10;;;2.00;;
1204;SDS011;592;48.764;9.174;2022-12-28T03:51:25;4.87;;;2.00;;
1204;SDS011;592;48.764;9.174;2022-12-28T03:53:54;4.03;;;2.10;;
1204;SDS011;592;48.764;9.174;2022-12-28T03:56:22;4.50;;;2.13;;
1204;SDS011;592;48.764;9.174;2022-12-28T03:58:53;4.17;;;1.83;;
1204;SDS011;592;48.764;9.174;2022-12-28T04:01:20;7.57;;;1.70;;
1204;SDS011;592;48.764;9.174;2022-12-28T04:03:47;7.87;;;1.70;;
1204;SDS011;592;48.764;9.174;2022-12-28T04:06:14;4.90;;;2.17;;
1204;SDS011;592;48.764;9.174;2022-12-28T04:08:43;4.10;;;1.70;;
1204;SDS011;592;48.764;9.174;2022-12-28T04:11:11;4.80;;;1.97;;
1204;SDS011;592;48.764;9.174;2022-12-28T04:13:38;4.40;;;1.90;;
1204;SDS011;592;48.764;9.174;2022-12-28T04:16:05;4.40;;;2.03;;
1204;SDS011;592;48.764;9.174;2022-12-28T04:18:33;4.07;;;1.90;;
1204;SDS011;592;48.764;9.174;2022-12-28T04:21:00;3.93;;;1.80;;
1204;SDS011;592;48.764;9.174;2022-12-28T04:23:27;4.60;;;1.97;;
1204;SDS011;592;48.764;9.174;2022-12-28T04:25:57;3.70;;;1.73;;
1204;SDS011;592;48.764;9.174;2022-12-28T04:28:25;5.53;;;1.80;;
1204;SDS011;592;48.764;9.174;2022-12-28T04:30:53;6.90;;;1.83;;
1204;SDS011;592;48.764;9.174;2022-12-28T04:33:20;3.63;;;1.67;;
1204;SDS011;592;48.764;9.174;2022-12-28T04:35:47;5.70;;;1.70;;
1204;SDS011;592;48.764;9.174;2022-12-28T04:38:13;4.03;;;1.40;;
1204;SDS011;592;48.764;9.174;2022-12-28T04:40:40;5.13;;;1.90;;
1204;SDS011;592;48.764;9.174;2022-12-28T04:43:08;4.83;;;1.90;;
1204;SDS011;592;48.764;9.174;2022-12-28T04:45:35;6.27;;;1.60;;
1204;SDS011;592;48.764;9.174;2022-12-28T04:48:02;4.30;;;1.33;;
1204;SDS011;592;48.764;9.174;2022-12-28T04:50:29;5.03;;;1.60;;
1204;SDS011;592;48.764;9.174;2022-12-28T04:52:56;4.03;;;1.43;;
1204;SDS011;592;48.764;9.174;2022-12-28T04:55:23;5.93;;;2.03;;
1204;SDS011;592;48.764;9.174;2022-12-28T04:57:50;4.30;;;1.60;;
1204;SDS011;592;48.764;9.174;2022-12-28T05:00:18;5.93;;;2.00;;
1204;SDS011;592;48.764;9.174;2022-12-28T05:02:45;4.40;;;1.50;;
1204;SDS011;592;48.764;9.174;2022-12-28T05:05:11;3.70;;;1.70;;
1204;SDS011;592;48.764;9.174;2022-12-28T05:07:38;3.60;;;1.73;;
1204;SDS011;592;48.764;9.174;2022-12-28T05:10:05;5.13;;;1.63;;
1204;SDS011;592;48.764;9.174;2022-12-28T05:12:32;3.33;;;1.37;;
1204;SDS011;592;48.764;9.174;2022-12-28T05:14:59;3.50;;;1.30;;
1204;SDS011;592;48.764;9.174;2022-12-28T05:17:27;4.13;;;1.67;;
1204;SDS011;592;48.764;9.174;2022-12-28T05:19:53;2.93;;;1.20;;
1204;SDS011;592;48.764;9.174;2022-12-28T05:22:20;5.00;;;1.27;;
1204;SDS011;592;48.764;9.174;2022-12-28T05:24:47;3.13;;;1.23;;
1204;SDS011;592;48.764;9.174;2022-12-28T05:27:13;3.70;;;1.40;;
1204;SDS011;592;48.764;9.174;2022-12-28T05:29:40;3.00;;;1.43;;
1204;SDS011;592;48.764;9.174;2022-12-28T05:32:07;4.13;;;1.37;;
1204;SDS011;592;48.764;9.174;2022-12-28T05:34:35;3.87;;;1.57;;
1204;SDS011;592;48.764;9.174;2022-12-28T05:37:01;3.70;;;1.57;;
1204;SDS011;592;48.764;9.174;2022-12-28T05:39:28;6.33;;;1.93;;
1204;SDS011;592;48.764;9.174;2022-12-28T05:41:55;3.97;;;1.50;;
1204;SDS011;592;48.764;9.174;2022-12-28T05:44:24;3.40;;;1.40;;
1204;SDS011;592;48.764;9.174;2022-12-28T05:46:50;3.67;;;1.50;;
1204;SDS011;592;48.764;9.174;2022-12-28T05:49:17;4.43;;;1.60;;
1204;SDS011;592;48.764;9.174;2022-12-28T05:51:47;4.37;;;1.70;;
1204;SDS011;592;48.764;9.174;2022-12-28T05:54:14;5.63;;;1.53;;
1204;SDS011;592;48.764;9.174;2022-12-28T05:56:40;3.93;;;1.57;;
1204;SDS011;592;48.764;9.174;2022-12-28T05:59:07;7.73;;;1.60;;
1204;SDS011;592;48.764;9.174;2022-12-28T06:01:36;6.03;;;1.90;;
1204;SDS011;592;48.764;9.174;2022-12-28T06:04:05;5.67;;;2.03;;
1204;SDS011;592;48.764;9.174;2022-12-28T06:06:33;4.73;;;1.80;;
1204;SDS011;592;48.764;9.174;2022-12-28T06:09:02;4.40;;;1.80;;
1204;SDS011;592;48.764;9.174;2022-12-28T06:11:29;4.10;;;1.70;;
1204;SDS011;592;48.764;9.174;2022-12-28T06:13:57;5.97;;;1.60;;
1204;SDS011;592;48.764;9.174;2022-12-28T06:16:25;3.60;;;1.50;;
1204;SDS011;592;48.764;9.174;2022-12-28T06:18:53;5.90;;;1.37;;
1204;SDS011;592;48.764;9.174;2022-12-28T06:21:21;5.53;;;2.00;;
1204;SDS011;592;48.764;9.174;2022-12-28T06:23:49;4.13;;;1.50;;
1204;SDS011;592;48.764;9.174;2022-12-28T06:26:18;4.23;;;2.00;;
1204;SDS011;592;48.764;9.174;2022-12-28T06:28:46;3.57;;;1.50;;
1204;SDS011;592;48.764;9.174;2022-12-28T06:31:15;5.67;;;1.77;;
1204;SDS011;592;48.764;9.174;2022-12-28T06:33:43;5.20;;;1.70;;
1204;SDS011;592;48.764;9.174;2022-12-28T06:36:10;3.60;;;1.60;;
1204;SDS011;592;48.764;9.174;2022-12-28T06:38:37;3.60;;;1.47;;
1204;SDS011;592;48.764;9.174;2022-12-28T06:41:05;5.30;;;1.53;;
1204;SDS011;592;48.764;9.174;2022-12-28T06:43:34;3.97;;;1.50;;
1204;SDS011;592;48.764;9.174;2022-12-28T06:46:02;6.87;;;1.30;;
1204;SDS011;592;48.764;9.174;2022-12-28T06:48:30;4.47;;;1.70;;
1204;SDS011;592;48.764;9.174;2022-12-28T06:50:58;3.73;;;1.43;;
1204;SDS011;592;48.764;9.174;2022-12-28T06:53:26;4.23;;;1.80;;
1204;SDS011;592;48.764;9.174;2022-12-28T06:55:54;5.03;;;1.67;;
1204;SDS011;592;48.764;9.174;2022-12-28T06:58:21;3.47;;;1.60;;
1204;SDS011;592;48.764;9.174;2022-12-28T07:00:50;4.50;;;1.87;;
1204;SDS011;592;48.764;9.174;2022-12-28T07:03:17;4.40;;;1.40;;
1204;SDS011;592;48.764;9.174;2022-12-28T07:05:44;3.70;;;1.63;;
1204;SDS011;592;48.764;9.174;2022-12-28T07:08:11;4.67;;;1.60;;
1204;SDS011;592;48.764;9.174;2022-12-28T07:10:37;4.40;;;1.50;;
1204;SDS011;592;48.764;9.174;2022-12-28T07:13:04;3.77;;;1.33;;
1204;SDS011;592;48.764;9.174;2022-12-28T07:15:31;5.03;;;1.63;;
1204;SDS011;592;48.764;9.174;2022-12-28T07:18:02;4.33;;;1.50;;
1204;SDS011;592;48.764;9.174;2022-12-28T07:20:28;4.87;;;1.40;;
1204;SDS011;592;48.764;9.174;2022-12-28T07:22:55;5.30;;;1.60;;
1204;SDS011;592;48.764;9.174;2022-12-28T07:25:22;4.60;;;1.70;;
1204;SDS011;592;48.764;9.174;2022-12-28T07:27:48;3.03;;;1.40;;
1204;SDS011;592;48.764;9.174;2022-12-28T07:30:15;5.40;;;1.93;;
1204;SDS011;592;48.764;9.174;2022-12-28T07:32:42;5.10;;;1.80;;
1204;SDS011;592;48.764;9.174;2022-12-28T07:35:10;5.50;;;1.57;;
1204;SDS011;592;48.764;9.174;2022-12-28T07:37:37;4.03;;;1.40;;
1204;SDS011;592;48.764;9.174;2022-12-28T07:40:04;5.03;;;1.80;;
1204;SDS011;592;48.764;9.174;2022-12-28T07:42:31;5.13;;;1.90;;
1204;SDS011;592;48.764;9.174;2022-12-28T07:44:58;4.37;;;1.77;;
1204;SDS011;592;48.764;9.174;2022-12-28T07:47:25;5.03;;;1.67;;
1204;SDS011;592;48.764;9.174;2022-12-28T07:49:51;7.63;;;1.80;;
1204;SDS011;592;48.764;9.174;2022-12-28T07:52:19;5.07;;;1.40;;
1204;SDS011;592;48.764;9.174;2022-12-28T07:54:46;4.90;;;1.70;;
1204;SDS011;592;48.764;9.174;2022-12-28T07:57:12;5.53;;;1.80;;
1204;SDS011;592;48.764;9.174;2022-12-28T07:59:39;5.10;;;1.97;;
1204;SDS011;592;48.764;9.174;2022-12-28T08:02:07;4.17;;;1.70;;
1204;SDS011;592;48.764;9.174;2022-12-28T08:04:34;3.60;;;1.50;;
1204;SDS011;592;48.764;9.174;2022-12-28T08:07:01;4.67;;;1.60;;
1204;SDS011;592;48.764;9.174;2022-12-28T08:09:29;4.83;;;1.83;;
1204;SDS011;592;48.764;9.174;2022-12-28T08:11:55;4.80;;;1.73;;
1204;SDS011;592;48.764;9.174;2022-12-28T08:14:22;4.43;;;1.70;;
1204;SDS011;592;48.764;9.174;2022-12-28T08:16:49;5.27;;;1.57;;
1204;SDS011;592;48.764;9.174;2022-12-28T08:19:15;4.47;;;2.00;;
1204;SDS011;592;48.764;9.174;2022-12-28T08:21:43;4.67;;;1.70;;
1204;SDS011;592;48.764;9.174;2022-12-28T08:24:12;4.70;;;2.10;;
1204;SDS011;592;48.764;9.174;2022-12-28T08:26:41;6.03;;;2.23;;
1204;SDS011;592;48.764;9.174;2022-12-28T08:29:10;4.63;;;1.93;;
1204;SDS011;592;48.764;9.174;2022-12-28T08:31:38;5.87;;;2.23;;
1204;SDS011;592;48.764;9.174;2022-12-28T08:34:07;4.23;;;2.03;;
1204;SDS011;592;48.764;9.174;2022-12-28T08:36:37;3.83;;;1.70;;
1204;SDS011;592;48.764;9.174;2022-12-28T08:39:04;4.50;;;1.83;;
1204;SDS011;592;48.764;9.174;2022-12-28T08:41:31;4.80;;;2.13;;
1204;SDS011;592;48.764;9.174;2022-12-28T08:43:59;3.00;;;1.40;;
1204;SDS011;592;48.764;9.174;2022-12-28T08:46:26;4.37;;;1.53;;
1204;SDS011;592;48.764;9.174;2022-12-28T08:48:55;4.43;;;1.70;;
1204;SDS011;592;48.764;9.174;2022-12-28T08:51:23;6.47;;;1.67;;
1204;SDS011;592;48.764;9.174;2022-12-28T08:53:51;5.27;;;1.70;;
1204;SDS011;592;48.764;9.174;2022-12-28T08:56:19;6.13;;;1.90;;
1204;SDS011;592;48.764;9.174;2022-12-28T08:58:47;4.10;;;1.80;;
1204;SDS011;592;48.764;9.174;2022-12-28T09:01:16;6.73;;;1.87;;
1204;SDS011;592;48.764;9.174;2022-12-28T09:03:44;6.33;;;3.40;;
1204;SDS011;592;48.764;9.174;2022-12-28T09:06:13;4.00;;;1.40;;
1204;SDS011;592;48.764;9.174;2022-12-28T09:08:41;4.43;;;1.80;;
1204;SDS011;592;48.764;9.174;2022-12-28T09:11:09;4.70;;;1.70;;
1204;SDS011;592;48.764;9.174;2022-12-28T09:13:38;4.30;;;1.87;;
1204;SDS011;592;48.764;9.174;2022-12-28T09:16:06;6.27;;;1.83;;
1204;SDS011;592;48.764;9.174;2022-12-28T09:18:35;3.40;;;1.57;;
1204;SDS011;592;48.764;9.174;2022-12-28T09:21:04;3.33;;;1.53;;
1204;SDS011;592;48.764;9.174;2022-12-28T09:23:31;7.33;;;3.07;;
1204;SDS011;592;48.764;9.174;2022-12-28T09:26:02;5.07;;;2.10;;
1204;SDS011;592;48.764;9.174;2022-12-28T09:28:30;4.50;;;1.80;;
1204;SDS011;592;48.764;9.174;2022-12-28T09:30:56;4.43;;;1.60;;
1204;SDS011;592;48.764;9.174;2022-12-28T09:33:23;5.67;;;1.90;;
1204;SDS011;592;48.764;9.174;2022-12-28T09:36:08;4.00;;;1.97;;
1204;SDS011;592;48.764;9.174;2022-12-28T09:38:35;4.07;;;1.87;;
1204;SDS011;592;48.764;9.174;2022-12-28T09:41:08;5.47;;;2.07;;
1204;SDS011;592;48.764;9.174;2022-12-28T09:43:37;4.40;;;1.93;;
1204;SDS011;592;48.764;9.174;2022-12-28T09:46:06;4.60;;;1.60;;
1204;SDS011;592;48.764;9.174;2022-12-28T09:48:34;4.33;;;1.67;;
1204;SDS011;592;48.764;9.174;2022-12-28T09:51:02;3.57;;;1.50;;
1204;SDS011;592;48.764;9.174;2022-12-28T09:53:31;4.30;;;2.00;;
1204;SDS011;592;48.764;9.174;2022-12-28T09:56:00;5.40;;;2.00;;
1204;SDS011;592;48.764;9.174;2022-12-28T09:58:30;5.07;;;1.80;;
1204;SDS011;592;48.764;9.174;2022-12-28T10:00:59;3.57;;;1.50;;
1204;SDS011;592;48.764;9.174;2022-12-28T10:03:30;4.53;;;1.60;;
1204;SDS011;592;48.764;9.174;2022-12-28T10:06:01;4.00;;;1.63;;
1204;SDS011;592;48.764;9.174;2022-12-28T10:08:29;4.07;;;1.60;;
1204;SDS011;592;48.764;9.174;2022-12-28T10:10:58;4.60;;;1.50;;
1204;SDS011;592;48.764;9.174;2022-12-28T10:13:29;3.87;;;1.50;;
1204;SDS011;592;48.764;9.174;2022-12-28T10:16:02;3.87;;;1.33;;
1204;SDS011;592;48.764;9.174;2022-12-28T10:18:30;4.00;;;1.60;;
1204;SDS011;592;48.764;9.174;2022-12-28T10:20:57;4.07;;;1.63;;
1204;SDS011;592;48.764;9.174;2022-12-28T10:23:25;4.50;;;1.80;;
1204;SDS011;592;48.764;9.174;2022-12-28T10:25:57;3.40;;;1.27;;
1204;SDS011;592;48.764;9.174;2022-12-28T10:28:27;4.83;;;1.53;;
1204;SDS011;592;48.764;9.174;2022-12-28T10:31:03;6.10;;;1.87;;
1204;SDS011;592;48.764;9.174;2022-12-28T10:33:33;3.77;;;1.53;;
1204;SDS011;592;48.764;9.174;2022-12-28T10:36:09;5.60;;;1.30;;
1204;SDS011;592;48.764;9.174;2022-12-28T10:38:38;3.20;;;1.40;;
1204;SDS011;592;48.764;9.174;2022-12-28T10:41:10;3.43;;;1.43;;
1204;SDS011;592;48.764;9.174;2022-12-28T10:43:39;3.67;;;1.30;;
1204;SDS011;592;48.764;9.174;2022-12-28T10:46:15;5.97;;;1.70;;
1204;SDS011;592;48.764;9.174;2022-12-28T10:48:45;5.07;;;1.47;;
1204;SDS011;592;48.764;9.174;2022-12-28T10:51:15;5.30;;;1.50;;
1204;SDS011;592;48.764;9.174;2022-12-28T10:53:44;5.00;;;1.50;;
1204;SDS011;592;48.764;9.174;2022-12-28T10:56:23;4.13;;;1.47;;
1204;SDS011;592;48.764;9.174;2022-12-28T10:58:52;4.83;;;1.50;;
1204;SDS011;592;48.764;9.174;2022-12-28T11:01:22;7.47;;;1.57;;
1204;SDS011;592;48.764;9.174;2022-12-28T11:03:58;5.53;;;2.00;;
1204;SDS011;592;48.764;9.174;2022-12-28T11:06:28;7.00;;;1.70;;
1204;SDS011;592;48.764;9.174;2022-12-28T11:08:59;5.17;;;1.40;;
1204;SDS011;592;48.764;9.174;2022-12-28T11:11:30;4.27;;;1.70;;
1204;SDS011;592;48.764;9.174;2022-12-28T11:13:57;4.87;;;1.70;;
1204;SDS011;592;48.764;9.174;2022-12-28T11:16:28;3.87;;;1.20;;
1204;SDS011;592;48.764;9.174;2022-12-28T11:18:58;4.50;;;1.40;;
1204;SDS011;592;48.764;9.174;2022-12-28T11:24:00;3.90;;;1.50;;
1204;SDS011;592;48.764;9.174;2022-12-28T11:26:28;5.10;;;1.60;;
1204;SDS011;592;48.764;9.174;2022-12-28T11:28:57;5.20;;;1.50;;
1204;SDS011;592;48.764;9.174;2022-12-28T11:31:27;3.63;;;1.20;;
1204;SDS011;592;48.764;9.174;2022-12-28T11:33:58;9.90;;;1.83;;
1204;SDS011;592;48.764;9.174;2022-12-28T11:36:29;4.30;;;1.20;;
1204;SDS011;592;48.764;9.174;2022-12-28T11:38:57;3.30;;;1.20;;
1204;SDS011;592;48.764;9.174;2022-12-28T11:41:45;3.83;;;1.43;;
1204;SDS011;592;48.764;9.174;2022-12-28T11:44:21;5.23;;;1.40;;
1204;SDS011;592;48.764;9.174;2022-12-28T11:46:57;4.47;;;1.67;;
1204;SDS011;592;48.764;9.174;2022-12-28T11:49:28;2.90;;;1.23;;
1204;SDS011;592;48.764;9.174;2022-12-28T11:58:33;6.50;;;1.40;;
1204;SDS011;592;48.764;9.174;2022-12-28T12:04:17;3.23;;;1.20;;
1204;SDS011;592;48.764;9.174;2022-12-28T12:16:07;6.07;;;2.00;;
1204;SDS011;592;48.764;9.174;2022-12-28T12:18:44;4.40;;;1.40;;
1204;SDS011;592;48.764;9.174;2022-12-28T12:21:20;3.73;;;1.43;;
1204;SDS011;592;48.764;9.174;2022-12-28T12:23:53;4.10;;;1.33;;
1204;SDS011;592;48.764;9.174;2022-12-28T12:26:32;3.33;;;1.27;;
1204;SDS011;592;48.764;9.174;2022-12-28T12:29:04;4.90;;;1.80;;
1204;SDS011;592;48.764;9.174;2022-12-28T12:31:40;4.47;;;1.43;;
1204;SDS011;592;48.764;9.174;2022-12-28T12:34:11;3.93;;;1.60;;
1204;SDS011;592;48.764;9.174;2022-12-28T12:36:51;3.60;;;1.40;;
1204;SDS011;592;48.764;9.174;2022-12-28T12:39:41;6.30;;;2.20;;
1204;SDS011;592;48.764;9.174;2022-12-28T12:42:27;3.10;;;1.30;;
1204;SDS011;592;48.764;9.174;2022-12-28T12:45:04;4.93;;;1.70;;
1204;SDS011;592;48.764;9.174;2022-12-28T12:47:45;3.40;;;1.23;;
1204;SDS011;592;48.764;9.174;2022-12-28T12:50:43;3.40;;;1.27;;
1204;SDS011;592;48.764;9.174;2022-12-28T12:53:27;3.73;;;1.47;;
1204;SDS011;592;48.764;9.174;2022-12-28T12:56:05;3.50;;;1.50;;
1204;SDS011;592;48.764;9.174;2022-12-28T12:58:42;3.97;;;1.60;;
1204;SDS011;592;48.764;9.174;2022-12-28T13:01:18;5.80;;;1.70;;
1204;SDS011;592;48.764;9.174;2022-12-28T13:03:54;4.10;;;1.80;;
1204;SDS011;592;48.764;9.174;2022-12-28T13:06:24;3.40;;;1.47;;
1204;SDS011;592;48.764;9.174;2022-12-28T13:08:55;3.80;;;1.23;;
1204;SDS011;592;48.764;9.174;2022-12-28T13:11:23;5.47;;;1.80;;
1204;SDS011;592;48.764;9.174;2022-12-28T13:13:51;3.77;;;1.57;;
1204;SDS011;592;48.764;9.174;2022-12-28T13:16:20;5.13;;;1.80;;
1204;SDS011;592;48.764;9.174;2022-12-28T13:18:52;3.30;;;1.50;;
1204;SDS011;592;48.764;9.174;2022-12-28T13:21:20;4.13;;;1.80;;
1204;SDS011;592;48.764;9.174;2022-12-28T13:23:49;5.00;;;1.70;;
1204;SDS011;592;48.764;9.174;2022-12-28T13:26:16;5.17;;;1.63;;
1204;SDS011;592;48.764;9.174;2022-12-28T13:28:49;3.87;;;1.77;;
1204;SDS011;592;48.764;9.174;2022-12-28T13:31:21;4.97;;;2.33;;
1204;SDS011;592;48.764;9.174;2022-12-28T13:33:55;5.97;;;2.37;;
1204;SDS011;592;48.764;9.174;2022-12-28T13:36:23;4.40;;;1.73;;
1204;SDS011;592;48.764;9.174;2022-12-28T13:39:00;9.40;;;3.47;;
1204;SDS011;592;48.764;9.174;2022-12-28T13:41:34;6.30;;;2.57;;
1204;SDS011;592;48.764;9.174;2022-12-28T13:44:11;4.40;;;1.80;;
1204;SDS011;592;48.764;9.174;2022-12-28T13:47:00;5.87;;;2.07;;
1204;SDS011;592;48.764;9.174;2022-12-28T13:49:34;6.30;;;2.80;;
1204;SDS011;592;48.764;9.174;2022-12-28T13:52:11;4.53;;;2.00;;
1204;SDS011;592;48.764;9.174;2022-12-28T13:54:42;3.83;;;1.63;;
1204;SDS011;592;48.764;9.174;2022-12-28T13:57:12;4.40;;;1.80;;
1204;SDS011;592;48.764;9.174;2022-12-28T13:59:45;4.57;;;1.57;;
1204;SDS011;592;48.764;9.174;2022-12-28T14:02:14;4.43;;;1.90;;
1204;SDS011;592;48.764;9.174;2022-12-28T14:04:44;4.87;;;2.33;;
1204;SDS011;592;48.764;9.174;2022-12-28T14:07:12;4.60;;;2.00;;
1204;SDS011;592;48.764;9.174;2022-12-28T14:09:41;4.23;;;1.80;;
1204;SDS011;592;48.764;9.174;2022-12-28T14:12:10;5.00;;;1.70;;
1204;SDS011;592;48.764;9.174;2022-12-28T14:14:38;3.20;;;1.37;;
1204;SDS011;592;48.764;9.174;2022-12-28T14:17:05;5.40;;;2.53;;
1204;SDS011;592;48.764;9.174;2022-12-28T14:19:34;3.67;;;1.77;;
1204;SDS011;592;48.764;9.174;2022-12-28T14:22:01;5.07;;;1.70;;
1204;SDS011;592;48.764;9.174;2022-12-28T14:24:28;6.03;;;1.60;;
1204;SDS011;592;48.764;9.174;2022-12-28T14:26:55;7.50;;;1.80;;
1204;SDS011;592;48.764;9.174;2022-12-28T14:29:25;4.53;;;1.70;;
1204;SDS011;592;48.764;9.174;2022-12-28T14:31:54;4.50;;;2.00;;
1204;SDS011;592;48.764;9.174;2022-12-28T14:34:24;4.10;;;1.60;;
1204;SDS011;592;48.764;9.174;2022-12-28T14:36:54;5.57;;;1.53;;
1204;SDS011;592;48.764;9.174;2022-12-28T14:39:27;4.47;;;2.13;;
1204;SDS011;592;48.764;9.174;2022-12-28T14:41:58;3.60;;;1.77;;
1204;SDS011;592;48.764;9.174;2022-12-28T14:44:27;5.03;;;1.70;;
1204;SDS011;592;48.764;9.174;2022-12-28T14:46:56;4.30;;;1.70;;
1204;SDS011;592;48.764;9.174;2022-12-28T14:49:28;5.20;;;2.07;;
1204;SDS011;592;48.764;9.174;2022-12-28T14:54:55;4.03;;;1.70;;
1204;SDS011;592;48.764;9.174;2022-12-28T14:57:24;4.17;;;2.10;;
1204;SDS011;592;48.764;9.174;2022-12-28T14:59:56;4.57;;;1.90;;
1204;SDS011;592;48.764;9.174;2022-12-28T15:02:36;4.40;;;1.70;;
1204;SDS011;592;48.764;9.174;2022-12-28T15:08:01;6.37;;;2.10;;
1204;SDS011;592;48.764;9.174;2022-12-28T15:10:28;4.60;;;2.17;;
1204;SDS011;592;48.764;9.174;2022-12-28T15:12:54;4.07;;;1.90;;
1204;SDS011;592;48.764;9.174;2022-12-28T15:15:21;4.40;;;2.20;;
1204;SDS011;592;48.764;9.174;2022-12-28T15:17:48;4.97;;;2.10;;
1204;SDS011;592;48.764;9.174;2022-12-28T15:20:15;4.27;;;1.97;;
1204;SDS011;592;48.764;9.174;2022-12-28T15:22:42;3.43;;;1.60;;
1204;SDS011;592;48.764;9.174;2022-12-28T15:25:10;4.97;;;1.77;;
1204;SDS011;592;48.764;9.174;2022-12-28T15:27:36;4.03;;;1.50;;
1204;SDS011;592;48.764;9.174;2022-12-28T15:30:04;5.60;;;1.97;;
1204;SDS011;592;48.764;9.174;2022-12-28T15:32:31;5.63;;;1.80;;
1204;SDS011;592;48.764;9.174;2022-12-28T15:34:58;4.50;;;2.07;;
1204;SDS011;592;48.764;9.174;2022-12-28T15:37:24;4.57;;;1.80;;
1204;SDS011;592;48.764;9.174;2022-12-28T15:39:51;7.03;;;2.07;;
1204;SDS011;592;48.764;9.174;2022-12-28T15:42:19;4.90;;;2.10;;
1204;SDS011;592;48.764;9.174;2022-12-28T15:44:46;4.67;;;2.67;;
1204;SDS011;592;48.764;9.174;2022-12-28T15:47:15;6.80;;;2.50;;
1204;SDS011;592;48.764;9.174;2022-12-28T15:49:41;4.73;;;2.60;;
1204;SDS011;592;48.764;9.174;2022-12-28T15:52:08;5.13;;;2.70;;
1204;SDS011;592;48.764;9.174;2022-12-28T15:54:35;4.67;;;2.10;;
1204;SDS011;592;48.764;9.174;2022-12-28T15:57:01;5.77;;;2.10;;
1204;SDS011;592;48.764;9.174;2022-12-28T15:59:30;4.90;;;2.73;;
1204;SDS011;592;48.764;9.174;2022-12-28T16:01:56;4.00;;;1.90;;
1204;SDS011;592;48.764;9.174;2022-12-28T16:04:23;4.00;;;2.10;;
1204;SDS011;592;48.764;9.174;2022-12-28T16:06:50;4.33;;;2.10;;
1204;SDS011;592;48.764;9.174;2022-12-28T16:09:16;4.70;;;2.20;;
1204;SDS011;592;48.764;9.174;2022-12-28T16:11:43;3.47;;;1.50;;
1204;SDS011;592;48.764;9.174;2022-12-28T16:14:10;5.90;;;2.47;;
1204;SDS011;592;48.764;9.174;2022-12-28T16:16:40;5.77;;;2.27;;
1204;SDS011;592;48.764;9.174;2022-12-28T16:19:08;5.13;;;2.17;;
1204;SDS011;592;48.764;9.174;2022-12-28T16:21:38;8.00;;;2.60;;
1204;SDS011;592;48.764;9.174;2022-12-28T16:24:05;4.73;;;2.13;;